METAR Data
IDs: Format: Raw Decoded Include TAF

Data at: 0102 UTC 06 Dec 2019

KPVE 060055Z AUTO 18005KT 10SM FEW027 SCT070 BKN090 13/01 A3009 RMK A01
KPVE 060035Z AUTO 14004KT 10SM CLR 13/01 A3008 RMK A01
KPVE 060015Z AUTO 18004KT 10SM FEW060 FEW075 SCT100 13/01 A3009 RMK A01
KPVE 052355Z AUTO 17004KT 10SM FEW065 BKN075 OVC095 14/01 A3008 RMK A01
KPVE 052335Z AUTO 17004KT 10SM FEW080 BKN100 OVC120 14/02 A3008 RMK A01
KPVE 052315Z AUTO 19003KT 10SM BKN110 14/01 A3008 RMK A01
KPVE 052255Z AUTO 16003KT 10SM FEW090 SCT120 14/01 A3007 RMK A01
KPVE 052235Z AUTO 19005KT 10SM FEW120 14/01 A3007 RMK A01
KPVE 052215Z AUTO 20006KT 10SM CLR 14/01 A3007 RMK A01
KPVE 052155Z AUTO 20005KT 10SM FEW120 14/01 A3007 RMK A01
KPVE 052135Z AUTO 20007KT 10SM BKN120 15/00 A3007 RMK A01
KPVE 052115Z AUTO 22009KT 10SM BKN120 16/00 A3007 RMK A01
KPVE 052055Z AUTO 20007KT 10SM FEW120 16/01 A3007 RMK A01
KPVE 052035Z AUTO 19011KT 10SM FEW120 16/M00 A3007 RMK A01
KPVE 052015Z AUTO 21008KT 10SM CLR 17/M01 A3006 RMK A01
KPVE 051955Z AUTO 20007KT 10SM CLR 17/00 A3006 RMK A01
KPVE 051935Z AUTO 21006KT 10SM CLR 17/00 A3006 RMK A01
KPVE 051915Z AUTO 21007KT 10SM CLR 16/00 A3007 RMK A01
KPVE 051855Z AUTO 21009KT 10SM CLR 16/M00 A3008 RMK A01
KPVE 051835Z AUTO 21009KT 10SM CLR 16/M00 A3008 RMK A01
KPVE 051815Z AUTO VRB06KT 10SM CLR 17/00 A3009 RMK A01
KPVE 051755Z AUTO 17007KT 10SM CLR 16/01 A3010 RMK A01
KPVE 051735Z AUTO 19005KT 10SM CLR 15/02 A3011 RMK A01
KPVE 051715Z AUTO 20007KT 10SM CLR 14/02 A3012 RMK A01
KPVE 051655Z AUTO 16005KT 10SM CLR 13/02 A3013 RMK A01
KPVE 051615Z AUTO 20006KT 10SM CLR 12/02 A3014 RMK A01
KPVE 051555Z AUTO VRB04KT 10SM CLR 11/03 A3014 RMK A01
KPVE 051535Z AUTO 00000KT 10SM CLR 09/03 A3014 RMK A01
KPVE 051515Z AUTO VRB03KT 10SM CLR 08/03 A3014 RMK A01
KPVE 051455Z AUTO VRB03KT 10SM CLR 07/03 A3013 RMK A01
KPVE 051435Z AUTO 00000KT 9SM CLR 04/02 A3013 RMK A01
KPVE 051415Z AUTO 00000KT 10SM CLR 04/02 A3013 RMK A01
KPVE 051355Z AUTO 00000KT 10SM CLR 03/02 A3013 RMK A01
KPVE 051335Z AUTO 00000KT 9SM CLR 01/00 A3012 RMK A01
KPVE 051315Z AUTO 00000KT 10SM CLR 00/M00 A3012 RMK A01
KPVE 051255Z AUTO 00000KT 10SM CLR 00/M00 A3011 RMK A01
KPVE 051235Z AUTO 00000KT 10SM CLR 00/M00 A3010 RMK A01
KPVE 051215Z AUTO 00000KT 10SM CLR 00/M00 A3010 RMK A01
KPVE 051155Z AUTO 00000KT 10SM CLR 00/M00 A3009 RMK A01
KPVE 051135Z AUTO 00000KT 10SM CLR 00/M00 A3008 RMK A01
KPVE 051115Z AUTO 00000KT 10SM CLR 00/M00 A3007 RMK A01
KPVE 051055Z AUTO 00000KT 10SM CLR 00/M00 A3006 RMK A01
KPVE 051035Z AUTO 00000KT 10SM CLR M00/M00 A3007 RMK A01
KPVE 051015Z AUTO 00000KT 9SM CLR M00/M01 A3006 RMK A01
KPVE 050955Z AUTO 00000KT 10SM CLR 00/M00 A3006 RMK A01
KPVE 050935Z AUTO 00000KT 10SM CLR M01/M01 A3005 RMK A01
KPVE 050915Z AUTO 00000KT 10SM CLR M01/M01 A3005 RMK A01
KPVE 050855Z AUTO 00000KT 10SM CLR M01/M01 A3005 RMK A01
KPVE 050835Z AUTO 00000KT 10SM CLR M01/M01 A3005 RMK A01
KPVE 050810Z AUTO 00000KT 10SM CLR M00/M01 A3005 RMK A01
KPVE 050755Z AUTO 00000KT 10SM CLR M00/M00 A3004 RMK A01
KPVE 050735Z AUTO 00000KT 10SM CLR M00/M01 A3003 RMK A01
KPVE 050715Z AUTO 00000KT 8SM CLR M00/M01 A3002 RMK A01
KPVE 050655Z AUTO 00000KT 10SM CLR 01/M00 A3003 RMK A01
KPVE 050635Z AUTO 00000KT 10SM CLR 01/M00 A3002 RMK A01
KPVE 050615Z AUTO 00000KT 10SM CLR 01/M00 A3002 RMK A01
KPVE 050555Z AUTO 00000KT 10SM CLR 01/M00 A3002 RMK A01
KPVE 050535Z AUTO 00000KT 10SM CLR 01/M00 A3002 RMK A01
KPVE 050515Z AUTO 00000KT 10SM CLR 01/M00 A3002 RMK A01
KPVE 050455Z AUTO 07003KT 01/M01 A3002 RMK A01
KPVE 050435Z AUTO 00000KT 10SM CLR 02/M00 A3003 RMK A01
KPVE 050415Z AUTO 00000KT 10SM CLR 01/M00 A3002 RMK A01
KPVE 050355Z AUTO 06003KT 10SM CLR 01/M01 A3002 RMK A01
KPVE 050335Z AUTO 20003KT 10SM CLR 02/M00 A3003 RMK A01
KPVE 050315Z AUTO 00000KT 10SM CLR 03/M00 A3002 RMK A01
KPVE 050255Z AUTO 00000KT 10SM CLR 02/M00 A3002 RMK A01
KPVE 050235Z AUTO 00000KT 10SM CLR 03/00 A3002 RMK A01
KPVE 050215Z AUTO 00000KT 10SM CLR 03/M00 A3001 RMK A01
KPVE 050155Z AUTO 00000KT 10SM CLR 05/M00 A3000 RMK A01
KPVE 050135Z AUTO 00000KT 10SM CLR 04/M00 A2999 RMK A01
KPVE 050115Z AUTO 00000KT 10SM CLR 06/M01 A2999 RMK A01
KPVE 050055Z AUTO 00000KT 10SM CLR 07/M01 A2998 RMK A01
KPVE 050035Z AUTO 00000KT 10SM CLR 08/M01 A2998 RMK A01
KPVE 050015Z AUTO 00000KT 10SM CLR 08/M01 A2998 RMK A01
KPVE 042355Z AUTO 00000KT 10SM CLR 10/M01 A2998 RMK A01
KPVE 042335Z AUTO 27004KT 10SM CLR 11/M01 A2998 RMK A01
KPVE 042315Z AUTO 26004KT 10SM CLR 12/M01 A2997 RMK A01
KPVE 042255Z AUTO 27004KT 10SM CLR 12/M01 A2997 RMK A01
KPVE 042235Z AUTO 27004KT 10SM CLR 13/M01 A2996 RMK A01
KPVE 042215Z AUTO 27004KT 10SM CLR 13/M01 A2996 RMK A01
KPVE 042155Z AUTO 26005KT 10SM CLR 14/M02 A2996 RMK A01
KPVE 042135Z AUTO 29003KT 10SM CLR 14/M02 A2995 RMK A01
KPVE 042115Z AUTO 28005KT 10SM CLR 15/M02 A2994 RMK A01
KPVE 042055Z AUTO 30005G10KT 10SM CLR 15/M01 A2993 RMK A01
KPVE 042035Z AUTO 31007KT 10SM CLR 15/M02 A2993 RMK A01
KPVE 042015Z AUTO 31007G13KT 10SM CLR 15/M03 A2992 RMK A01
KPVE 041955Z AUTO 28007KT 10SM CLR 15/M02 A2992 RMK A01
KPVE 041935Z AUTO 31006KT 10SM CLR 14/M01 A2992 RMK A01
KPVE 041915Z AUTO 29006G13KT 10SM CLR 14/M01 A2993 RMK A01
KPVE 041855Z AUTO 28007G14KT 10SM CLR 14/M01 A2993 RMK A01
KPVE 041835Z AUTO 30005G10KT 10SM CLR 14/M01 A2994 RMK A01
KPVE 041815Z AUTO 30005G12KT 10SM CLR 14/M00 A2994 RMK A01
KPVE 041755Z AUTO 29004G12KT 10SM CLR 13/M00 A2994 RMK A01
KPVE 041735Z AUTO 27008KT 10SM CLR 13/00 A2994 RMK A01
KPVE 041715Z AUTO 00000KT 10SM CLR 13/02 A2995 RMK A01
KPVE 041655Z AUTO VRB04KT 10SM CLR 11/02 A2996 RMK A01
KPVE 041635Z AUTO VRB04KT 10SM CLR 11/02 A2997 RMK A01
KPVE 041615Z AUTO VRB04KT 10SM CLR 10/02 A2998 RMK A01
KPVE 041555Z AUTO 25006KT 10SM CLR 09/02 A2998 RMK A01
KPVE 041535Z AUTO 25006KT 10SM CLR 08/02 A2997 RMK A01
KPVE 041515Z AUTO 23004KT 10SM CLR 07/02 A2997 RMK A01
KPVE 041455Z AUTO 24004KT 10SM CLR 06/03 A2995 RMK A01
KPVE 041435Z AUTO 00000KT 10SM CLR 04/02 A2995 RMK A01
KPVE 041415Z AUTO 00000KT 10SM CLR 03/02 A2994 RMK A01
KPVE 041355Z AUTO 00000KT 10SM CLR 00/M00 A2994 RMK A01
KPVE 041335Z AUTO 00000KT 10SM CLR M01/M02 A2993 RMK A01
KPVE 041315Z AUTO 00000KT 10SM CLR M02/M02 A2993 RMK A01